Time;durP1;ratioP1;P1;durP2;ratioP2;P2;SDS_P1;SDS_P2;PMS_P1;PMS_P2;Temp;Humidity;BMP_temperature;BMP_pressure;BME280_temperature;BME280_humidity;BME280_pressure;Samples;Min_cycle;Max_cycle;Signal;HPM_P1;HPM_P2
2023/03/17 00:00:42;;;;;;;;;3.00;2.00;;;;;;;;117877;1179;24904;-60
2023/03/17 00:03:28;;;;;;;;;2.67;1.00;;;;;;;;117891;1190;25060;-60
2023/03/17 00:05:57;;;;;;;;;3.00;3.00;;;;;;;;118129;1177;25272;-60
2023/03/17 00:08:28;;;;;;;;;2.25;1.50;;;;;;;;118092;1176;25190;-61
2023/03/17 00:10:56;;;;;;;;;2.00;2.00;;;;;;;;118099;1190;25329;-61
2023/03/17 00:13:25;;;;;;;;;2.25;1.25;;;;;;;;117858;1179;25426;-60
2023/03/17 00:15:58;;;;;;;;;1.00;1.00;;;;;;;;118121;1178;25569;-60
2023/03/17 00:18:29;;;;;;;;;2.00;2.00;;;;;;;;118114;1177;25173;-60
2023/03/17 00:20:58;;;;;;;;;2.25;2.25;;;;;;;;117973;1178;25013;-60
2023/03/17 00:23:27;;;;;;;;;3.33;2.33;;;;;;;;118135;1177;25559;-60
2023/03/17 00:25:56;;;;;;;;;2.00;2.00;;;;;;;;117914;1181;24962;-62
2023/03/17 00:28:26;;;;;;;;;4.33;2.67;;;;;;;;118147;1177;25509;-62
2023/03/17 00:30:57;;;;;;;;;1.33;1.00;;;;;;;;118106;1178;25375;-60
2023/03/17 00:33:28;;;;;;;;;2.00;2.00;;;;;;;;117913;1190;25161;-60
2023/03/17 00:35:57;;;;;;;;;1.00;1.00;;;;;;;;119852;1183;24965;-65
2023/03/17 00:38:26;;;;;;;;;2.00;2.00;;;;;;;;117936;1180;24890;-63
2023/03/17 00:40:55;;;;;;;;;2.00;2.00;;;;;;;;118130;1190;25057;-62
2023/03/17 00:43:23;;;;;;;;;1.00;1.00;;;;;;;;118093;1183;24684;-60
2023/03/17 00:45:51;;;;;;;;;2.00;2.00;;;;;;;;117933;1179;24885;-60
2023/03/17 00:48:20;;;;;;;;;2.00;2.00;;;;;;;;118113;1190;24846;-60
2023/03/17 00:50:49;;;;;;;;;2.50;2.50;;;;;;;;117956;1177;25596;-61
2023/03/17 00:53:20;;;;;;;;;2.00;2.00;;;;;;;;118188;1182;25326;-61
2023/03/17 00:55:48;;;;;;;;;3.00;3.00;;;;;;;;117976;1190;24736;-60
2023/03/17 00:58:24;;;;;;;;;2.00;1.50;;;;;;;;118082;1177;25251;-60
2023/03/17 01:00:53;;;;;;;;;2.75;2.75;;;;;;;;118089;1190;25155;-60
2023/03/17 01:03:22;;;;;;;;;1.00;1.00;;;;;;;;118162;1183;25229;-61
2023/03/17 01:05:52;;;;;;;;;2.00;2.00;;;;;;;;117918;1180;25626;-63
2023/03/17 01:08:21;;;;;;;;;3.50;1.25;;;;;;;;118151;1176;25355;-66
2023/03/17 01:10:49;;;;;;;;;2.00;2.00;;;;;;;;118157;1190;25670;-69
2023/03/17 01:13:18;;;;;;;;;3.00;1.67;;;;;;;;118155;1176;26259;-69
2023/03/17 01:15:48;;;;;;;;;2.50;1.50;;;;;;;;118157;1186;24795;-69
2023/03/17 01:18:20;;;;;;;;;1.50;1.50;;;;;;;;118214;1177;24904;-62
2023/03/17 01:20:49;;;;;;;;;2.00;2.00;;;;;;;;118174;1178;24874;-60
2023/03/17 01:23:18;;;;;;;;;2.67;2.67;;;;;;;;118066;1176;25034;-60
2023/03/17 01:25:46;;;;;;;;;4.67;2.67;;;;;;;;118083;1177;24972;-62
2023/03/17 01:28:17;;;;;;;;;1.00;1.00;;;;;;;;117898;1189;25057;-62
2023/03/17 01:30:46;;;;;;;;;1.25;1.00;;;;;;;;118099;1190;25334;-62
2023/03/17 01:33:14;;;;;;;;;1.67;1.67;;;;;;;;118117;1176;25413;-61
2023/03/17 01:35:44;;;;;;;;;1.00;1.00;;;;;;;;117900;1189;25479;-62
2023/03/17 01:38:13;;;;;;;;;3.00;2.00;;;;;;;;118103;1190;25338;-64
2023/03/17 01:40:45;;;;;;;;;1.00;0.00;;;;;;;;117910;1177;25547;-61
2023/03/17 01:43:28;;;;;;;;;2.25;1.75;;;;;;;;117929;1177;24738;-60
2023/03/17 01:46:15;;;;;;;;;2.00;1.75;;;;;;;;118055;1182;25367;-60
2023/03/17 01:48:57;;;;;;;;;1.00;1.00;;;;;;;;117935;1180;24933;-60
2023/03/17 01:51:30;;;;;;;;;1.00;1.00;;;;;;;;117951;1180;24985;-61
2023/03/17 01:54:01;;;;;;;;;1.00;1.00;;;;;;;;118151;1177;24839;-62
2023/03/17 01:56:30;;;;;;;;;2.00;2.00;;;;;;;;118110;1181;25090;-61
2023/03/17 01:59:00;;;;;;;;;1.00;1.00;;;;;;;;118126;1177;24849;-61
2023/03/17 02:01:35;;;;;;;;;0.67;0.33;;;;;;;;118174;1177;24792;-61
2023/03/17 02:04:05;;;;;;;;;1.00;1.00;;;;;;;;118178;1183;24803;-62
2023/03/17 02:06:34;;;;;;;;;1.00;1.00;;;;;;;;117918;1190;24929;-63
2023/03/17 02:09:11;;;;;;;;;1.00;1.00;;;;;;;;117927;1177;25463;-61
2023/03/17 02:11:41;;;;;;;;;0.00;0.00;;;;;;;;118100;1178;25041;-61
2023/03/17 02:14:09;;;;;;;;;1.00;1.00;;;;;;;;118144;1184;25649;-61
2023/03/17 02:16:37;;;;;;;;;0.25;0.25;;;;;;;;118112;1177;25198;-61
2023/03/17 02:19:06;;;;;;;;;0.75;0.75;;;;;;;;118155;1190;24965;-61
2023/03/17 02:21:53;;;;;;;;;3.75;1.00;;;;;;;;117968;1179;26204;-61
2023/03/17 02:24:35;;;;;;;;;0.00;0.00;;;;;;;;118102;1177;25654;-60
2023/03/17 02:27:27;;;;;;;;;2.00;1.00;;;;;;;;118081;1179;25384;-61
2023/03/17 02:29:56;;;;;;;;;0.00;0.00;;;;;;;;118072;1183;25096;-61
2023/03/17 02:32:25;;;;;;;;;2.50;1.00;;;;;;;;118074;1181;24953;-61
2023/03/17 02:34:53;;;;;;;;;1.00;1.00;;;;;;;;118110;1177;24913;-61
2023/03/17 02:37:22;;;;;;;;;2.00;1.00;;;;;;;;118112;1177;24740;-61
2023/03/17 02:39:51;;;;;;;;;1.33;0.33;;;;;;;;118078;1177;25799;-61
2023/03/17 02:42:19;;;;;;;;;3.00;1.00;;;;;;;;118147;1177;25381;-61
2023/03/17 02:44:48;;;;;;;;;1.00;1.00;;;;;;;;117953;1190;24743;-61
2023/03/17 02:47:16;;;;;;;;;1.00;1.00;;;;;;;;118115;1176;25125;-61
2023/03/17 02:49:45;;;;;;;;;1.00;1.00;;;;;;;;117959;1179;25116;-61
2023/03/17 02:52:13;;;;;;;;;1.25;1.25;;;;;;;;117957;1182;25316;-61
2023/03/17 02:54:42;;;;;;;;;1.33;1.33;;;;;;;;117971;1181;25232;-61
2023/03/17 02:57:10;;;;;;;;;1.33;0.00;;;;;;;;118099;1190;25433;-61
2023/03/17 02:59:39;;;;;;;;;2.50;2.00;;;;;;;;118125;1188;25072;-61
2023/03/17 03:02:08;;;;;;;;;1.00;1.00;;;;;;;;118153;1190;25531;-61
2023/03/17 03:04:36;;;;;;;;;2.00;2.00;;;;;;;;118123;1189;24832;-61
2023/03/17 03:07:05;;;;;;;;;2.33;2.00;;;;;;;;118108;1177;25283;-61
2023/03/17 03:09:34;;;;;;;;;1.33;1.33;;;;;;;;118111;1183;24924;-61
2023/03/17 03:12:03;;;;;;;;;2.00;1.00;;;;;;;;118088;1183;25614;-61
2023/03/17 03:14:31;;;;;;;;;1.67;1.33;;;;;;;;118116;1189;25309;-60
2023/03/17 03:16:59;;;;;;;;;1.00;1.00;;;;;;;;118139;1176;24875;-61
2023/03/17 03:19:28;;;;;;;;;1.00;1.00;;;;;;;;118091;1178;25542;-61
2023/03/17 03:21:56;;;;;;;;;1.00;1.00;;;;;;;;118156;1182;25327;-60
2023/03/17 03:24:25;;;;;;;;;1.00;1.00;;;;;;;;118091;1177;25421;-61
2023/03/17 03:26:53;;;;;;;;;1.00;1.00;;;;;;;;118046;1177;25357;-61
2023/03/17 03:29:22;;;;;;;;;2.00;1.00;;;;;;;;118098;1176;25996;-61
2023/03/17 03:31:50;;;;;;;;;1.00;1.00;;;;;;;;117969;1187;25732;-61
2023/03/17 03:34:18;;;;;;;;;1.50;1.00;;;;;;;;118130;1190;24695;-61
2023/03/17 03:36:47;;;;;;;;;2.50;1.00;;;;;;;;118108;1178;24907;-61
2023/03/17 03:39:15;;;;;;;;;1.00;1.00;;;;;;;;118119;1190;25302;-61
2023/03/17 03:41:44;;;;;;;;;2.00;1.50;;;;;;;;117949;1179;24906;-61
2023/03/17 03:44:12;;;;;;;;;1.00;1.00;;;;;;;;118109;1177;25370;-61
2023/03/17 03:46:40;;;;;;;;;2.25;1.50;;;;;;;;118133;1177;25403;-61
2023/03/17 03:49:09;;;;;;;;;1.00;1.00;;;;;;;;118114;1179;25499;-61
2023/03/17 03:51:37;;;;;;;;;2.00;1.67;;;;;;;;117975;1183;24815;-61
2023/03/17 03:54:06;;;;;;;;;1.00;1.00;;;;;;;;118093;1190;24779;-61
2023/03/17 03:56:34;;;;;;;;;1.00;1.00;;;;;;;;118136;1177;25061;-61
2023/03/17 03:59:03;;;;;;;;;0.00;0.00;;;;;;;;118060;1176;25348;-61
2023/03/17 04:01:31;;;;;;;;;1.00;1.00;;;;;;;;117877;1179;25482;-69
2023/03/17 04:04:00;;;;;;;;;3.00;1.00;;;;;;;;117873;1183;26462;-68
2023/03/17 04:06:29;;;;;;;;;2.25;1.00;;;;;;;;117897;1182;25475;-63
2023/03/17 04:08:57;;;;;;;;;0.00;0.00;;;;;;;;117834;1177;24818;-60
2023/03/17 04:11:26;;;;;;;;;1.50;1.50;;;;;;;;117914;1182;25234;-60
2023/03/17 04:13:54;;;;;;;;;1.00;1.00;;;;;;;;117969;1177;24908;-61
2023/03/17 04:16:23;;;;;;;;;1.00;1.00;;;;;;;;117902;1179;25650;-60
2023/03/17 04:18:51;;;;;;;;;0.50;0.00;;;;;;;;117920;1186;25093;-60
2023/03/17 04:21:20;;;;;;;;;1.50;1.50;;;;;;;;117942;1180;24981;-61
2023/03/17 04:23:49;;;;;;;;;2.75;1.00;;;;;;;;117950;1177;25594;-61
2023/03/17 04:26:17;;;;;;;;;1.00;1.00;;;;;;;;117853;1177;25589;-61
2023/03/17 04:28:46;;;;;;;;;1.00;1.00;;;;;;;;117849;1177;25381;-62
2023/03/17 04:31:15;;;;;;;;;1.00;1.00;;;;;;;;117902;1184;25514;-60
2023/03/17 04:33:43;;;;;;;;;0.00;0.00;;;;;;;;117933;1179;25752;-61
2023/03/17 04:36:20;;;;;;;;;1.00;1.00;;;;;;;;117952;1191;25267;-61
2023/03/17 04:38:49;;;;;;;;;0.00;0.00;;;;;;;;117817;1180;25459;-61
2023/03/17 04:41:17;;;;;;;;;1.00;1.00;;;;;;;;117859;1179;25075;-61
2023/03/17 04:43:46;;;;;;;;;3.00;2.00;;;;;;;;117916;1179;25418;-63
2023/03/17 04:46:15;;;;;;;;;0.50;0.50;;;;;;;;117854;1191;25200;-62
2023/03/17 04:48:43;;;;;;;;;0.25;0.25;;;;;;;;117923;1187;24835;-61
2023/03/17 04:51:12;;;;;;;;;1.00;1.00;;;;;;;;117950;1187;25281;-62
2023/03/17 04:53:40;;;;;;;;;0.00;0.00;;;;;;;;117960;1191;25425;-61
2023/03/17 04:56:08;;;;;;;;;1.00;1.00;;;;;;;;117924;1179;24874;-61
2023/03/17 04:58:37;;;;;;;;;1.00;0.50;;;;;;;;117963;1180;24744;-61
2023/03/17 05:01:07;;;;;;;;;2.00;2.00;;;;;;;;117855;1180;25596;-61
2023/03/17 05:03:35;;;;;;;;;1.00;1.00;;;;;;;;117966;1190;25355;-61
2023/03/17 05:06:05;;;;;;;;;1.00;1.00;;;;;;;;117860;1177;25138;-61
2023/03/17 05:08:34;;;;;;;;;1.00;1.00;;;;;;;;117879;1177;24820;-61
2023/03/17 05:11:02;;;;;;;;;3.00;1.67;;;;;;;;117927;1177;25486;-61
2023/03/17 05:13:31;;;;;;;;;1.00;1.00;;;;;;;;117921;1190;25621;-61
2023/03/17 05:16:00;;;;;;;;;1.00;0.50;;;;;;;;117929;1181;25002;-61
2023/03/17 05:18:29;;;;;;;;;3.00;0.00;;;;;;;;117950;1177;25278;-61
2023/03/17 05:20:58;;;;;;;;;0.00;0.00;;;;;;;;117930;1184;24734;-61
2023/03/17 05:23:26;;;;;;;;;1.00;1.00;;;;;;;;117896;1177;25219;-61
2023/03/17 05:25:55;;;;;;;;;1.50;0.50;;;;;;;;117875;1177;25643;-61
2023/03/17 05:28:24;;;;;;;;;1.67;1.67;;;;;;;;117890;1177;25094;-61
2023/03/17 05:30:53;;;;;;;;;1.00;1.00;;;;;;;;117917;1190;25551;-61
2023/03/17 05:33:21;;;;;;;;;3.00;2.00;;;;;;;;117974;1190;25126;-60
2023/03/17 05:35:51;;;;;;;;;0.00;0.00;;;;;;;;117945;1179;24850;-60
2023/03/17 05:38:19;;;;;;;;;2.33;1.33;;;;;;;;117964;1190;24890;-61
2023/03/17 05:40:50;;;;;;;;;1.00;1.00;;;;;;;;117923;1183;24837;-61
2023/03/17 05:43:20;;;;;;;;;2.50;2.50;;;;;;;;117936;1190;25423;-61
2023/03/17 05:45:49;;;;;;;;;0.50;0.50;;;;;;;;117870;1190;25713;-61
2023/03/17 05:48:18;;;;;;;;;1.00;1.00;;;;;;;;117893;1183;25093;-61
2023/03/17 05:50:46;;;;;;;;;3.00;1.00;;;;;;;;117892;1177;25191;-61
2023/03/17 05:53:15;;;;;;;;;1.25;1.00;;;;;;;;117860;1177;25171;-61
2023/03/17 05:55:43;;;;;;;;;0.00;0.00;;;;;;;;117945;1190;24932;-61
2023/03/17 05:58:14;;;;;;;;;1.00;1.00;;;;;;;;117906;1183;24752;-61
2023/03/17 06:00:44;;;;;;;;;0.00;0.00;;;;;;;;117870;1177;25031;-61
2023/03/17 06:03:13;;;;;;;;;2.00;0.00;;;;;;;;118122;1176;25548;-60
2023/03/17 06:05:41;;;;;;;;;1.75;1.00;;;;;;;;118117;1177;25243;-61
2023/03/17 06:08:10;;;;;;;;;1.00;1.00;;;;;;;;118108;1178;25548;-61
2023/03/17 06:10:38;;;;;;;;;3.00;2.00;;;;;;;;117978;1190;25125;-60
2023/03/17 06:13:07;;;;;;;;;1.00;0.50;;;;;;;;118114;1183;25586;-61
2023/03/17 06:15:35;;;;;;;;;1.33;0.67;;;;;;;;117959;1181;25200;-61
2023/03/17 06:18:04;;;;;;;;;1.00;1.00;;;;;;;;118115;1177;25558;-61
2023/03/17 06:20:33;;;;;;;;;1.75;1.75;;;;;;;;117979;1190;25422;-61
2023/03/17 06:23:01;;;;;;;;;1.00;1.00;;;;;;;;118155;1184;24891;-61
2023/03/17 06:25:34;;;;;;;;;2.00;2.00;;;;;;;;118127;1178;25319;-61
2023/03/17 06:28:04;;;;;;;;;1.00;1.00;;;;;;;;117954;1186;24866;-61
2023/03/17 06:30:33;;;;;;;;;2.00;2.00;;;;;;;;118133;1178;25022;-61
2023/03/17 06:33:02;;;;;;;;;1.25;1.25;;;;;;;;117972;1179;24908;-61
2023/03/17 06:35:32;;;;;;;;;0.00;0.00;;;;;;;;118118;1187;25683;-60
2023/03/17 06:38:02;;;;;;;;;0.00;0.00;;;;;;;;118036;1177;25119;-61
2023/03/17 06:40:31;;;;;;;;;1.00;0.00;;;;;;;;117927;1179;25247;-61
2023/03/17 06:43:00;;;;;;;;;2.50;1.00;;;;;;;;118119;1176;25332;-61
2023/03/17 06:45:28;;;;;;;;;1.00;1.00;;;;;;;;118060;1178;25080;-61
2023/03/17 06:47:57;;;;;;;;;0.25;0.25;;;;;;;;117958;1186;25425;-61
2023/03/17 06:50:26;;;;;;;;;1.00;1.00;;;;;;;;118103;1186;24888;-60
2023/03/17 06:52:54;;;;;;;;;1.00;1.00;;;;;;;;118100;1177;26348;-62
2023/03/17 06:55:23;;;;;;;;;2.00;1.00;;;;;;;;117858;1190;24849;-62
2023/03/17 06:57:53;;;;;;;;;2.33;1.00;;;;;;;;118069;1177;24909;-65
2023/03/17 07:00:21;;;;;;;;;0.67;0.00;;;;;;;;118025;1190;24769;-62
2023/03/17 07:02:50;;;;;;;;;0.33;0.33;;;;;;;;117905;1183;24908;-61
2023/03/17 07:05:19;;;;;;;;;2.00;2.00;;;;;;;;117842;1177;24926;-61
2023/03/17 07:07:48;;;;;;;;;1.00;1.00;;;;;;;;117903;1181;24962;-61
2023/03/17 07:10:17;;;;;;;;;0.00;0.00;;;;;;;;117943;1177;25546;-59
2023/03/17 07:12:45;;;;;;;;;1.50;1.50;;;;;;;;117952;1181;24913;-60
2023/03/17 07:15:16;;;;;;;;;0.33;0.33;;;;;;;;118074;1177;25089;-60
2023/03/17 07:17:45;;;;;;;;;1.67;1.00;;;;;;;;117927;1180;24903;-61
2023/03/17 07:20:14;;;;;;;;;2.33;1.33;;;;;;;;117918;1177;25003;-60
2023/03/17 07:22:42;;;;;;;;;3.00;3.00;;;;;;;;117910;1179;24986;-60
2023/03/17 07:25:11;;;;;;;;;2.00;0.00;;;;;;;;117848;1177;26272;-63
2023/03/17 07:27:40;;;;;;;;;3.00;2.00;;;;;;;;117967;1190;24854;-70
2023/03/17 07:30:09;;;;;;;;;1.00;1.00;;;;;;;;117829;1190;24875;-69
2023/03/17 07:32:38;;;;;;;;;4.33;1.67;;;;;;;;117917;1190;24941;-60
2023/03/17 07:35:06;;;;;;;;;2.33;1.33;;;;;;;;117934;1179;25015;-59
2023/03/17 07:37:35;;;;;;;;;1.00;1.00;;;;;;;;117890;1190;24885;-59
2023/03/17 07:40:05;;;;;;;;;1.00;1.00;;;;;;;;117926;1177;24749;-60
2023/03/17 07:42:34;;;;;;;;;1.00;0.50;;;;;;;;117936;1186;25535;-60
2023/03/17 07:45:04;;;;;;;;;1.50;1.00;;;;;;;;117899;1177;24754;-60
2023/03/17 07:47:33;;;;;;;;;1.33;1.33;;;;;;;;117933;1180;24986;-59
2023/03/17 07:50:02;;;;;;;;;1.67;1.67;;;;;;;;117958;1177;25678;-60
2023/03/17 07:52:31;;;;;;;;;1.33;1.00;;;;;;;;117817;1188;25397;-60
2023/03/17 07:54:59;;;;;;;;;1.00;1.00;;;;;;;;117952;1177;25675;-60
2023/03/17 07:57:27;;;;;;;;;1.67;1.00;;;;;;;;117876;1177;25487;-60
2023/03/17 07:59:56;;;;;;;;;0.75;0.75;;;;;;;;117961;1179;25451;-60
2023/03/17 08:02:25;;;;;;;;;0.00;0.00;;;;;;;;117915;1190;25642;-60
2023/03/17 08:04:53;;;;;;;;;0.00;0.00;;;;;;;;117905;1177;25596;-60
2023/03/17 08:07:22;;;;;;;;;0.67;0.33;;;;;;;;117939;1177;25582;-60
2023/03/17 08:09:51;;;;;;;;;0.50;0.50;;;;;;;;117853;1177;25152;-60
2023/03/17 08:12:19;;;;;;;;;0.50;0.50;;;;;;;;117861;1177;25264;-59
2023/03/17 08:14:48;;;;;;;;;1.00;1.00;;;;;;;;117884;1177;25614;-60
2023/03/17 08:17:17;;;;;;;;;0.67;0.67;;;;;;;;117905;1180;24842;-60
2023/03/17 08:19:45;;;;;;;;;3.00;1.25;;;;;;;;117923;1177;25078;-60
2023/03/17 08:22:14;;;;;;;;;0.25;0.25;;;;;;;;117927;1179;24695;-60
2023/03/17 08:24:43;;;;;;;;;1.00;1.00;;;;;;;;117928;1177;24874;-60
2023/03/17 08:27:12;;;;;;;;;2.00;1.00;;;;;;;;117944;1181;24880;-60
2023/03/17 08:29:40;;;;;;;;;1.00;1.00;;;;;;;;117880;1179;25390;-60
2023/03/17 08:32:09;;;;;;;;;1.00;1.00;;;;;;;;117812;1179;24889;-60
2023/03/17 08:38:20;;;;;;;;;1.00;1.00;;;;;;;;117938;1190;25032;-59
2023/03/17 08:40:49;;;;;;;;;1.00;1.00;;;;;;;;117942;1190;25304;-60
2023/03/17 08:43:18;;;;;;;;;1.00;1.00;;;;;;;;117949;1177;25116;-59
2023/03/17 08:45:46;;;;;;;;;1.00;1.00;;;;;;;;117935;1180;24934;-60
2023/03/17 08:48:15;;;;;;;;;1.33;1.33;;;;;;;;117950;1190;25461;-60
2023/03/17 08:50:44;;;;;;;;;0.00;0.00;;;;;;;;117932;1189;24857;-60
2023/03/17 08:53:13;;;;;;;;;1.00;1.00;;;;;;;;117950;1182;25365;-59
2023/03/17 08:55:41;;;;;;;;;3.50;1.00;;;;;;;;117941;1177;25553;-60
2023/03/17 08:58:10;;;;;;;;;3.00;1.00;;;;;;;;117925;1177;24841;-59
2023/03/17 09:00:39;;;;;;;;;1.33;1.33;;;;;;;;117895;1178;25104;-59
2023/03/17 09:03:08;;;;;;;;;1.00;1.00;;;;;;;;117924;1177;25522;-61
2023/03/17 09:05:36;;;;;;;;;1.00;1.00;;;;;;;;117893;1179;24934;-61
2023/03/17 09:08:06;;;;;;;;;1.33;1.33;;;;;;;;117938;1186;24697;-61
2023/03/17 09:10:35;;;;;;;;;1.00;1.00;;;;;;;;117944;1190;25274;-58
2023/03/17 09:13:04;;;;;;;;;1.00;1.00;;;;;;;;117877;1177;25593;-60
2023/03/17 09:15:32;;;;;;;;;1.00;1.00;;;;;;;;117824;1177;24749;-60
2023/03/17 09:18:02;;;;;;;;;1.50;0.00;;;;;;;;117931;1190;24734;-60
2023/03/17 09:20:31;;;;;;;;;1.00;1.00;;;;;;;;117914;1177;24985;-60
2023/03/17 09:23:03;;;;;;;;;3.33;1.00;;;;;;;;117874;1181;25734;-60
2023/03/17 09:25:33;;;;;;;;;1.00;1.00;;;;;;;;117964;1188;25352;-60
2023/03/17 09:28:03;;;;;;;;;1.33;1.33;;;;;;;;117923;1181;25316;-60
2023/03/17 09:30:31;;;;;;;;;1.50;1.00;;;;;;;;117946;1190;25311;-61
2023/03/17 09:33:00;;;;;;;;;0.50;0.50;;;;;;;;117927;1183;25615;-60
2023/03/17 09:35:30;;;;;;;;;1.50;1.50;;;;;;;;117851;1177;25798;-60
2023/03/17 09:37:58;;;;;;;;;1.75;0.50;;;;;;;;117837;1181;25417;-59
2023/03/17 09:40:32;;;;;;;;;1.00;1.00;;;;;;;;117908;1178;25387;-59
2023/03/17 09:43:10;;;;;;;;;0.75;0.75;;;;;;;;117860;1177;25141;-60
2023/03/17 09:45:40;;;;;;;;;1.00;1.00;;;;;;;;117812;1177;25017;-60
2023/03/17 09:48:26;;;;;;;;;2.00;0.00;;;;;;;;117847;1190;25477;-60
2023/03/17 09:51:09;;;;;;;;;0.50;0.50;;;;;;;;117813;1177;25286;-60
2023/03/17 09:53:59;;;;;;;;;0.00;0.00;;;;;;;;117879;1177;24951;-60
2023/03/17 09:56:30;;;;;;;;;0.50;0.50;;;;;;;;117880;1178;24986;-60
2023/03/17 09:59:19;;;;;;;;;2.75;1.50;;;;;;;;117870;1179;25265;-59
2023/03/17 10:01:49;;;;;;;;;4.50;1.00;;;;;;;;117892;1180;24941;-60
2023/03/17 10:04:17;;;;;;;;;2.00;0.33;;;;;;;;117881;1180;24998;-59
2023/03/17 10:06:46;;;;;;;;;1.00;1.00;;;;;;;;117899;1177;24781;-60
2023/03/17 10:09:30;;;;;;;;;1.00;1.00;;;;;;;;117947;1190;24915;-60
2023/03/17 10:12:04;;;;;;;;;2.00;1.50;;;;;;;;117911;1180;25107;-60
2023/03/17 10:14:53;;;;;;;;;2.50;1.00;;;;;;;;117883;1180;24980;-60
2023/03/17 10:17:25;;;;;;;;;2.00;1.00;;;;;;;;117941;1181;25962;-60
2023/03/17 10:19:57;;;;;;;;;0.00;0.00;;;;;;;;117898;1177;25525;-62
2023/03/17 10:23:06;;;;;;;;;0.50;0.50;;;;;;;;117925;1177;25315;-61
2023/03/17 10:25:36;;;;;;;;;0.33;0.33;;;;;;;;117891;1177;25584;-62
2023/03/17 10:28:28;;;;;;;;;1.00;1.00;;;;;;;;117859;1177;25492;-61
2023/03/17 10:31:11;;;;;;;;;0.67;0.33;;;;;;;;117818;1190;25198;-62
2023/03/17 10:33:39;;;;;;;;;1.00;1.00;;;;;;;;117846;1181;25081;-62
2023/03/17 10:36:10;;;;;;;;;2.00;1.00;;;;;;;;117834;1190;25316;-60
2023/03/17 10:38:38;;;;;;;;;2.00;0.00;;;;;;;;117862;1181;25000;-62
2023/03/17 10:41:08;;;;;;;;;3.00;1.00;;;;;;;;117846;1177;25544;-61
2023/03/17 10:43:43;;;;;;;;;1.00;1.00;;;;;;;;117931;1180;25170;-61
2023/03/17 10:46:24;;;;;;;;;1.25;1.25;;;;;;;;117902;1177;24746;-61
2023/03/17 10:48:56;;;;;;;;;1.00;1.00;;;;;;;;117942;1177;25564;-61
2023/03/17 10:51:34;;;;;;;;;1.00;1.00;;;;;;;;117889;1177;24731;-67
2023/03/17 10:54:09;;;;;;;;;0.00;0.00;;;;;;;;117885;1190;24934;-69
2023/03/17 10:56:41;;;;;;;;;1.00;0.67;;;;;;;;117873;1180;24726;-62
2023/03/17 10:59:42;;;;;;;;;1.00;1.00;;;;;;;;117910;1177;24707;-59
2023/03/17 11:02:18;;;;;;;;;1.00;1.00;;;;;;;;117925;1183;24870;-59
2023/03/17 11:04:47;;;;;;;;;1.00;1.00;;;;;;;;117896;1183;24761;-61
2023/03/17 11:07:22;;;;;;;;;1.00;1.00;;;;;;;;117859;1190;25124;-61
2023/03/17 11:09:51;;;;;;;;;2.00;0.00;;;;;;;;117923;1189;24994;-60
2023/03/17 11:12:35;;;;;;;;;0.33;0.33;;;;;;;;117977;1177;25309;-60
2023/03/17 11:15:08;;;;;;;;;0.25;0.25;;;;;;;;117923;1178;24737;-60
2023/03/17 11:18:19;;;;;;;;;1.67;1.67;;;;;;;;117878;1179;25164;-60
2023/03/17 11:21:01;;;;;;;;;0.33;0.00;;;;;;;;117939;1180;25227;-60
2023/03/17 11:23:46;;;;;;;;;1.00;1.00;;;;;;;;117904;1192;25660;-60
2023/03/17 11:26:24;;;;;;;;;1.00;1.00;;;;;;;;117947;1177;25363;-59
2023/03/17 11:29:21;;;;;;;;;1.00;1.00;;;;;;;;117908;1177;25342;-60
2023/03/17 11:31:52;;;;;;;;;1.25;1.00;;;;;;;;117931;1177;24749;-59
2023/03/17 11:34:47;;;;;;;;;1.00;1.00;;;;;;;;117938;1190;25466;-61
2023/03/17 11:37:31;;;;;;;;;0.75;0.75;;;;;;;;117927;1190;25273;-60
2023/03/17 11:40:26;;;;;;;;;3.00;2.00;;;;;;;;117911;1190;24845;-60
2023/03/17 11:43:03;;;;;;;;;1.00;1.00;;;;;;;;117948;1180;25591;-60
2023/03/17 11:45:56;;;;;;;;;0.67;0.67;;;;;;;;117836;1188;25583;-60
2023/03/17 11:48:47;;;;;;;;;1.50;1.50;;;;;;;;117925;1188;25439;-60
2023/03/17 11:51:39;;;;;;;;;0.75;0.50;;;;;;;;117946;1180;25269;-60
2023/03/17 11:54:49;;;;;;;;;1.00;1.00;;;;;;;;117872;1182;25483;-60
2023/03/17 11:57:54;;;;;;;;;0.67;0.67;;;;;;;;117946;1190;27157;-59
2023/03/17 12:00:39;;;;;;;;;1.00;1.00;;;;;;;;117885;1190;24844;-60
2023/03/17 12:03:19;;;;;;;;;1.25;1.25;;;;;;;;117929;1183;25058;-60
2023/03/17 12:05:54;;;;;;;;;1.00;1.00;;;;;;;;117870;1190;25069;-60
2023/03/17 12:08:41;;;;;;;;;0.00;0.00;;;;;;;;117906;1183;25403;-60
2023/03/17 12:11:13;;;;;;;;;0.67;0.67;;;;;;;;117907;1177;25626;-60
2023/03/17 12:13:47;;;;;;;;;1.00;1.00;;;;;;;;117938;1177;25075;-60
2023/03/17 12:16:39;;;;;;;;;1.00;1.00;;;;;;;;117920;1190;25021;-60
2023/03/17 12:19:27;;;;;;;;;1.00;1.00;;;;;;;;117933;1177;25269;-60
2023/03/17 12:22:01;;;;;;;;;1.50;0.50;;;;;;;;117937;1187;24856;-60
2023/03/17 12:24:44;;;;;;;;;3.00;1.00;;;;;;;;117898;1177;24973;-60
2023/03/17 12:27:22;;;;;;;;;2.00;2.00;;;;;;;;117932;1183;24861;-61
2023/03/17 12:29:57;;;;;;;;;1.00;1.00;;;;;;;;117921;1190;24727;-60
2023/03/17 12:32:44;;;;;;;;;0.00;0.00;;;;;;;;117945;1182;24953;-60
2023/03/17 12:35:26;;;;;;;;;1.00;1.00;;;;;;;;117950;1182;25461;-59
2023/03/17 12:38:01;;;;;;;;;2.00;1.00;;;;;;;;117921;1190;24903;-60
2023/03/17 12:40:35;;;;;;;;;4.00;1.00;;;;;;;;117963;1179;25574;-59
2023/03/17 12:43:04;;;;;;;;;0.50;0.50;;;;;;;;117954;1177;25347;-59
2023/03/17 12:45:41;;;;;;;;;3.00;1.00;;;;;;;;117912;1180;25522;-60
2023/03/17 12:48:30;;;;;;;;;1.00;1.00;;;;;;;;117990;1185;25645;-61
2023/03/17 12:51:07;;;;;;;;;1.00;1.00;;;;;;;;117922;1190;26258;-60
2023/03/17 12:53:39;;;;;;;;;1.00;1.00;;;;;;;;117952;1177;24885;-60
2023/03/17 12:56:30;;;;;;;;;1.00;1.00;;;;;;;;117931;1190;25018;-60
2023/03/17 12:59:16;;;;;;;;;1.00;1.00;;;;;;;;117954;1188;24937;-60
2023/03/17 13:01:56;;;;;;;;;0.75;0.75;;;;;;;;117929;1186;25446;-60
2023/03/17 13:04:27;;;;;;;;;0.67;0.67;;;;;;;;117921;1177;24865;-60
2023/03/17 13:06:58;;;;;;;;;0.75;0.75;;;;;;;;117871;1181;24979;-60
2023/03/17 13:09:30;;;;;;;;;0.00;0.00;;;;;;;;117890;1190;25217;-60
2023/03/17 13:12:00;;;;;;;;;1.00;1.00;;;;;;;;117897;1180;25153;-60
2023/03/17 13:14:45;;;;;;;;;1.00;1.00;;;;;;;;117885;1179;25231;-59
2023/03/17 13:17:16;;;;;;;;;0.75;0.75;;;;;;;;117908;1190;25467;-60
2023/03/17 13:20:07;;;;;;;;;1.00;1.00;;;;;;;;117928;1177;24884;-62
2023/03/17 13:22:36;;;;;;;;;0.00;0.00;;;;;;;;117926;1178;25202;-60
2023/03/17 13:25:30;;;;;;;;;0.00;0.00;;;;;;;;117905;1177;25670;-61
2023/03/17 13:28:12;;;;;;;;;2.50;0.50;;;;;;;;117878;1177;25451;-61
2023/03/17 13:30:51;;;;;;;;;0.67;0.67;;;;;;;;117881;1190;24682;-61
2023/03/17 13:33:24;;;;;;;;;1.00;1.00;;;;;;;;117776;1179;25546;-60
2023/03/17 13:36:08;;;;;;;;;1.33;0.33;;;;;;;;117883;1178;25146;-61
2023/03/17 13:38:51;;;;;;;;;1.00;1.00;;;;;;;;117858;1187;25349;-61
2023/03/17 13:42:11;;;;;;;;;0.00;0.00;;;;;;;;117809;1178;25072;-61
2023/03/17 13:44:51;;;;;;;;;1.00;1.00;;;;;;;;117742;1190;25402;-60
2023/03/17 13:47:23;;;;;;;;;0.00;0.00;;;;;;;;117868;1177;25213;-60
2023/03/17 13:49:55;;;;;;;;;1.00;1.00;;;;;;;;117802;1177;25381;-60
2023/03/17 13:52:31;;;;;;;;;1.00;1.00;;;;;;;;117761;1190;25247;-60
2023/03/17 13:55:28;;;;;;;;;0.75;0.75;;;;;;;;117761;1178;25574;-60
2023/03/17 13:58:08;;;;;;;;;2.00;0.67;;;;;;;;117877;1183;25470;-61
2023/03/17 14:00:42;;;;;;;;;1.00;1.00;;;;;;;;117933;1180;25190;-60
2023/03/17 14:03:17;;;;;;;;;1.00;0.67;;;;;;;;117895;1177;24970;-61
2023/03/17 14:05:47;;;;;;;;;2.00;0.50;;;;;;;;117917;1178;25679;-61
2023/03/17 14:08:21;;;;;;;;;0.67;0.67;;;;;;;;117897;1190;24766;-60
2023/03/17 14:10:55;;;;;;;;;1.67;1.00;;;;;;;;117914;1177;25408;-60
2023/03/17 14:13:25;;;;;;;;;1.00;1.00;;;;;;;;117905;1190;24962;-60
2023/03/17 14:16:30;;;;;;;;;1.00;1.00;;;;;;;;117862;1177;24760;-63
2023/03/17 14:19:16;;;;;;;;;0.67;0.67;;;;;;;;117907;1181;25755;-64
2023/03/17 14:21:45;;;;;;;;;1.00;1.00;;;;;;;;117940;1190;24853;-61
2023/03/17 14:24:33;;;;;;;;;0.00;0.00;;;;;;;;117937;1184;25015;-61
2023/03/17 14:27:13;;;;;;;;;2.00;0.33;;;;;;;;117859;1190;25246;-61
2023/03/17 14:29:42;;;;;;;;;0.67;0.67;;;;;;;;117868;1177;25613;-61
2023/03/17 14:32:15;;;;;;;;;0.00;0.00;;;;;;;;117889;1190;25616;-60
2023/03/17 14:34:47;;;;;;;;;3.00;3.00;;;;;;;;117832;1177;25544;-60
2023/03/17 14:37:15;;;;;;;;;2.75;2.00;;;;;;;;117914;1186;24970;-59
2023/03/17 14:39:46;;;;;;;;;3.00;1.00;;;;;;;;118083;1190;24843;-60
2023/03/17 14:42:18;;;;;;;;;0.50;0.50;;;;;;;;118121;1177;24701;-60
2023/03/17 14:44:47;;;;;;;;;1.00;1.00;;;;;;;;118132;1177;25116;-60
2023/03/17 14:47:21;;;;;;;;;1.00;1.00;;;;;;;;118092;1187;24874;-60
2023/03/17 14:49:51;;;;;;;;;0.50;0.50;;;;;;;;117953;1190;24965;-60
2023/03/17 14:52:25;;;;;;;;;1.67;1.67;;;;;;;;118098;1190;24994;-61
2023/03/17 14:54:57;;;;;;;;;1.00;0.00;;;;;;;;117905;1190;24682;-60
2023/03/17 14:57:29;;;;;;;;;3.00;1.00;;;;;;;;117950;1190;24719;-60
2023/03/17 15:00:14;;;;;;;;;1.00;1.00;;;;;;;;118077;1177;25072;-60
2023/03/17 15:02:53;;;;;;;;;2.00;2.00;;;;;;;;118097;1178;25790;-61
2023/03/17 15:05:42;;;;;;;;;5.67;3.00;;;;;;;;118126;1176;25358;-61
2023/03/17 15:08:42;;;;;;;;;1.00;1.00;;;;;;;;118022;1176;26239;-59